createdAt,value
2023-01-11T00:00:24.314Z,9.17
2023-01-11T00:03:16.103Z,9.02
2023-01-11T00:05:46.295Z,8.95
2023-01-11T00:08:15.349Z,8.73
2023-01-11T00:10:44.740Z,8.80
2023-01-11T00:13:14.730Z,9.40
2023-01-11T00:18:15.537Z,8.63
2023-01-11T00:20:44.957Z,8.70
2023-01-11T00:23:14.264Z,8.57
2023-01-11T00:25:43.664Z,9.45
2023-01-11T00:28:12.758Z,9.23
2023-01-11T00:30:42.098Z,10.10
2023-01-11T00:33:14.413Z,8.98
2023-01-11T00:35:43.917Z,9.85
2023-01-11T00:38:33.454Z,10.10
2023-01-11T00:41:22.839Z,10.30
2023-01-11T00:44:15.086Z,9.25
2023-01-11T00:47:01.951Z,10.18
2023-01-11T00:49:32.684Z,9.73
2023-01-11T00:52:02.172Z,10.15
2023-01-11T00:54:31.198Z,9.80
2023-01-11T00:57:00.596Z,11.13
2023-01-11T00:59:29.713Z,11.77
2023-01-11T01:01:59.055Z,10.93
2023-01-11T01:04:28.177Z,11.15
2023-01-11T01:06:58.906Z,12.47
2023-01-11T01:09:28.764Z,12.85
2023-01-11T01:11:58.113Z,13.20
2023-01-11T01:14:26.373Z,12.52
2023-01-11T01:16:57.405Z,12.02
2023-01-11T01:19:27.751Z,11.45
2023-01-11T01:21:59.882Z,13.20
2023-01-11T01:24:29.395Z,12.70
2023-01-11T01:26:59.479Z,14.05
2023-01-11T01:29:28.808Z,13.40
2023-01-11T01:31:58.381Z,14.18
2023-01-11T01:34:27.559Z,13.32
2023-01-11T01:36:58.315Z,13.23
2023-01-11T01:39:27.446Z,13.30
2023-01-11T01:41:56.798Z,13.90
2023-01-11T01:45:04.065Z,14.30
2023-01-11T01:47:45.501Z,13.85
2023-01-11T01:50:18.918Z,14.52
2023-01-11T01:52:54.718Z,14.18
2023-01-11T01:55:29.841Z,12.98
2023-01-11T01:58:01.432Z,14.32
2023-01-11T02:00:30.722Z,14.13
2023-01-11T02:03:02.743Z,14.02
2023-01-11T02:05:32.155Z,15.38
2023-01-11T02:08:08.463Z,16.00
2023-01-11T02:10:39.048Z,15.60
2023-01-11T02:13:12.234Z,16.60
2023-01-11T02:15:41.732Z,16.25
2023-01-11T02:18:13.668Z,18.83
2023-01-11T02:21:08.067Z,18.02
2023-01-11T02:24:08.303Z,18.85
2023-01-11T02:27:07.876Z,19.23
2023-01-11T02:29:47.738Z,18.20
2023-01-11T02:32:27.345Z,19.17
2023-01-11T02:35:09.279Z,19.65
2023-01-11T02:37:44.488Z,17.80
2023-01-11T02:40:23.663Z,17.83
2023-01-11T02:43:14.440Z,16.95
2023-01-11T02:45:51.643Z,17.13
2023-01-11T02:48:28.622Z,16.35
2023-01-11T02:51:05.174Z,15.85
2023-01-11T02:53:39.843Z,14.88
2023-01-11T02:56:13.252Z,15.85
2023-01-11T02:58:46.192Z,14.55
2023-01-11T03:01:17.791Z,15.20
2023-01-11T03:03:47.003Z,14.70
2023-01-11T03:06:20.748Z,14.93
2023-01-11T03:09:19.139Z,14.63
2023-01-11T03:12:24.493Z,14.07
2023-01-11T03:15:04.760Z,12.77
2023-01-11T03:17:45.426Z,13.15
2023-01-11T03:23:01.836Z,13.73
2023-01-11T03:25:40.549Z,13.90
2023-01-11T03:28:18.124Z,13.38
2023-01-11T03:30:54.055Z,13.75
2023-01-11T03:33:33.159Z,13.90
2023-01-11T03:36:08.616Z,14.02
2023-01-11T03:38:43.276Z,13.65
2023-01-11T03:41:16.780Z,12.90
2023-01-11T03:43:49.385Z,13.77
2023-01-11T03:46:23.943Z,12.98
2023-01-11T03:48:58.545Z,13.18
2023-01-11T03:51:30.996Z,13.77
2023-01-11T03:54:02.686Z,14.10
2023-01-11T03:56:36.848Z,13.30
2023-01-11T03:59:06.326Z,12.13
2023-01-11T04:01:35.381Z,13.30
2023-01-11T04:04:06.325Z,13.27
2023-01-11T04:06:38.759Z,13.93
2023-01-11T04:09:08.260Z,13.52
2023-01-11T04:11:37.284Z,12.98
2023-01-11T04:14:06.694Z,13.10
2023-01-11T04:16:35.819Z,14.05
2023-01-11T04:19:06.672Z,14.27
2023-01-11T04:21:35.838Z,14.82
2023-01-11T04:24:05.413Z,13.60
2023-01-11T04:26:34.732Z,14.10
2023-01-11T04:29:04.074Z,13.63
2023-01-11T04:31:33.539Z,13.23
2023-01-11T04:34:02.927Z,12.98
2023-01-11T04:36:33.863Z,12.93
2023-01-11T04:39:03.275Z,12.05
2023-01-11T04:41:49.879Z,11.73
2023-01-11T04:44:19.254Z,12.00
2023-01-11T04:46:48.275Z,12.35
2023-01-11T04:49:17.951Z,11.05
2023-01-11T04:51:48.447Z,11.90
2023-01-11T04:54:17.980Z,11.90
2023-01-11T04:56:47.030Z,11.55
2023-01-11T04:59:16.338Z,12.17
2023-01-11T05:01:45.461Z,13.25
2023-01-11T05:04:14.827Z,11.77
2023-01-11T05:06:44.177Z,12.38
2023-01-11T05:09:16.717Z,11.53
2023-01-11T05:11:46.099Z,11.70
2023-01-11T05:14:16.528Z,11.50
2023-01-11T05:16:46.024Z,11.32
2023-01-11T05:19:15.413Z,10.80
2023-01-11T05:21:44.511Z,11.48
2023-01-11T05:24:16.987Z,9.88
2023-01-11T05:26:48.503Z,10.63
2023-01-11T05:29:20.422Z,11.18
2023-01-11T05:31:50.028Z,10.23
2023-01-11T05:34:20.108Z,10.68
2023-01-11T05:36:49.305Z,11.15
2023-01-11T05:39:20.005Z,12.45
2023-01-11T05:41:49.113Z,12.20
2023-01-11T05:44:36.697Z,11.85
2023-01-11T05:47:05.896Z,13.70
2023-01-11T05:49:35.174Z,11.73
2023-01-11T05:52:04.323Z,12.65
2023-01-11T05:54:35.039Z,13.63
2023-01-11T05:57:04.125Z,15.68
2023-01-11T05:59:33.596Z,13.77
2023-01-11T06:02:02.700Z,12.35
2023-01-11T06:04:32.069Z,12.97
2023-01-11T06:07:01.302Z,13.05
2023-01-11T06:09:30.687Z,16.30
2023-01-11T06:12:01.060Z,17.70
2023-01-11T06:14:30.555Z,20.17
2023-01-11T06:17:02.322Z,16.63
2023-01-11T06:19:31.772Z,16.02
2023-01-11T06:22:00.809Z,14.20
2023-01-11T06:24:30.232Z,16.23
2023-01-11T06:27:00.749Z,18.02
2023-01-11T06:29:30.073Z,15.95
2023-01-11T06:31:59.196Z,17.77
2023-01-11T06:34:28.752Z,15.65
2023-01-11T06:36:57.924Z,14.82
2023-01-11T06:39:27.207Z,13.43
2023-01-11T06:41:56.289Z,13.43
2023-01-11T06:44:27.022Z,13.97
2023-01-11T06:46:56.122Z,10.98
2023-01-11T06:49:25.524Z,10.73
2023-01-11T06:51:54.598Z,10.10
2023-01-11T06:54:32.900Z,10.37
2023-01-11T06:57:01.990Z,9.15
2023-01-11T06:59:32.729Z,9.63
2023-01-11T07:02:02.007Z,8.85
2023-01-11T07:04:32.025Z,8.93
2023-01-11T07:07:01.308Z,7.68
2023-01-11T07:09:30.698Z,8.60
2023-01-11T07:11:59.768Z,9.00
2023-01-11T07:14:29.583Z,9.80
2023-01-11T07:17:00.023Z,9.07
2023-01-11T07:19:29.483Z,8.00
2023-01-11T07:21:58.506Z,7.95
2023-01-11T07:24:28.224Z,7.70
2023-01-11T07:26:59.678Z,7.65
2023-01-11T07:29:29.235Z,6.40
2023-01-11T07:31:59.746Z,7.40
2023-01-11T07:34:29.066Z,7.10
2023-01-11T07:36:58.081Z,7.40
2023-01-11T07:39:42.270Z,7.75
2023-01-11T07:42:29.818Z,6.93
2023-01-11T07:44:59.254Z,7.25
2023-01-11T07:47:29.991Z,8.20
2023-01-11T07:49:59.407Z,7.82
2023-01-11T07:52:28.457Z,7.55
2023-01-11T07:55:02.406Z,8.03
2023-01-11T07:57:32.356Z,8.80
2023-01-11T08:00:01.784Z,9.85
2023-01-11T08:02:41.932Z,8.98
2023-01-11T08:05:11.985Z,9.52
2023-01-11T08:07:43.757Z,9.40
2023-01-11T08:10:14.169Z,9.07
2023-01-11T08:13:04.973Z,9.75
2023-01-11T08:15:36.698Z,9.80
2023-01-11T08:18:07.747Z,9.85
2023-01-11T08:20:37.314Z,10.10
2023-01-11T08:23:08.360Z,9.35
2023-01-11T08:25:38.658Z,9.98
2023-01-11T08:28:08.648Z,10.00
2023-01-11T08:33:08.450Z,10.23
2023-01-11T08:35:40.797Z,9.80
2023-01-11T08:38:09.941Z,9.50
2023-01-11T08:40:39.541Z,9.97
2023-01-11T08:43:08.663Z,10.60
2023-01-11T08:45:38.008Z,10.02
2023-01-11T08:48:08.854Z,10.18
2023-01-11T08:50:38.512Z,10.05
2023-01-11T08:53:07.528Z,10.10
2023-01-11T08:55:36.868Z,9.73
2023-01-11T08:58:06.023Z,10.35
2023-01-11T09:00:35.385Z,11.10
2023-01-11T09:03:04.931Z,9.02
2023-01-11T09:05:35.759Z,9.00
2023-01-11T09:08:05.201Z,9.82
2023-01-11T09:10:35.029Z,10.18
2023-01-11T09:13:04.536Z,10.13
2023-01-11T09:15:33.848Z,9.15
2023-01-11T09:18:03.200Z,8.75
2023-01-11T09:20:34.162Z,9.20
2023-01-11T09:23:03.342Z,7.95
2023-01-11T09:25:33.294Z,9.50
2023-01-11T09:28:02.543Z,8.82
2023-01-11T09:30:31.856Z,8.77
2023-01-11T09:33:00.956Z,8.88
2023-01-11T09:35:30.323Z,7.77
2023-01-11T09:38:01.905Z,8.43
2023-01-11T09:40:42.205Z,8.52
2023-01-11T09:43:15.049Z,7.18
2023-01-11T09:45:46.936Z,7.93
2023-01-11T09:48:28.865Z,8.18
2023-01-11T09:50:58.617Z,8.10
2023-01-11T09:53:35.033Z,7.93
2023-01-11T09:56:07.819Z,7.70
2023-01-11T09:58:51.129Z,7.97
2023-01-11T10:01:26.039Z,7.65
2023-01-11T10:04:25.813Z,7.85
2023-01-11T10:07:14.376Z,7.63
2023-01-11T10:18:35.338Z,7.68
2023-01-11T10:19:31.611Z,7.45
2023-01-11T10:22:00.240Z,7.22
2023-01-11T10:24:37.532Z,7.68
2023-01-11T10:27:15.937Z,6.88
2023-01-11T10:29:57.818Z,7.38
2023-01-11T10:32:58.977Z,7.78
2023-01-11T10:35:59.030Z,7.45
2023-01-11T10:38:54.011Z,7.03
2023-01-11T10:41:34.178Z,7.28
2023-01-11T10:44:30.562Z,7.40
2023-01-11T10:47:03.235Z,6.97
2023-01-11T10:49:44.374Z,7.35
2023-01-11T10:52:35.186Z,8.48
2023-01-11T10:55:13.961Z,7.65
2023-01-11T10:57:59.856Z,7.32
2023-01-11T11:00:40.951Z,7.70
2023-01-11T11:03:45.289Z,7.65
2023-01-11T11:06:24.575Z,6.95
2023-01-11T11:09:03.279Z,7.63
2023-01-11T11:11:37.554Z,7.00
2023-01-11T11:14:15.605Z,6.97
2023-01-11T11:16:59.724Z,7.13
2023-01-11T11:19:33.307Z,6.50
2023-01-11T11:22:02.642Z,7.05
2023-01-11T11:24:38.684Z,6.50
2023-01-11T11:27:18.099Z,6.90
2023-01-11T11:29:52.121Z,6.70
2023-01-11T11:32:27.185Z,6.45
2023-01-11T11:34:56.711Z,6.70
2023-01-11T11:37:28.630Z,6.43
2023-01-11T11:39:58.142Z,6.53
2023-01-11T11:42:27.742Z,6.50
2023-01-11T11:45:17.680Z,6.53
2023-01-11T11:48:03.802Z,7.37
2023-01-11T11:50:48.606Z,6.63
2023-01-11T11:53:37.264Z,6.93
2023-01-11T11:56:18.485Z,7.22
2023-01-11T11:58:48.215Z,7.05
2023-01-11T12:01:30.925Z,6.97
2023-01-11T12:04:05.476Z,7.18
2023-01-11T12:06:35.004Z,7.40
2023-01-11T12:09:12.205Z,7.15
2023-01-11T12:11:43.263Z,6.93
2023-01-11T12:14:20.222Z,6.82
2023-01-11T12:16:49.799Z,7.50
2023-01-11T12:19:35.409Z,7.60
2023-01-11T12:22:17.975Z,7.70
2023-01-11T12:24:48.004Z,7.18
2023-01-11T12:30:19.184Z,7.25
2023-01-11T12:33:06.332Z,7.60
2023-01-11T12:35:52.795Z,7.20
2023-01-11T12:38:39.783Z,7.30
2023-01-11T12:41:47.764Z,8.05
2023-01-11T12:44:26.961Z,7.70
2023-01-11T12:47:17.983Z,6.82
2023-01-11T12:49:55.626Z,7.38
2023-01-11T12:52:45.895Z,7.45
2023-01-11T12:58:05.915Z,7.07
2023-01-11T13:01:06.971Z,7.07
2023-01-11T13:04:04.371Z,7.22
2023-01-11T13:06:41.787Z,7.85
2023-01-11T13:09:27.139Z,8.43
2023-01-11T13:12:01.866Z,7.55
2023-01-11T13:14:43.381Z,6.28
2023-01-11T13:17:24.842Z,7.85
2023-01-11T13:20:07.123Z,7.60
2023-01-11T13:22:41.623Z,6.93
2023-01-11T13:25:22.324Z,7.53
2023-01-11T13:27:54.805Z,7.75
2023-01-11T13:30:25.363Z,7.55
2023-01-11T13:32:58.296Z,7.85
2023-01-11T13:35:37.723Z,7.93
2023-01-11T13:38:21.439Z,8.27
2023-01-11T13:40:54.682Z,7.78
2023-01-11T13:43:29.983Z,7.88
2023-01-11T13:46:05.841Z,7.45
2023-01-11T13:48:41.782Z,8.10
2023-01-11T13:51:20.572Z,8.15
2023-01-11T13:53:57.126Z,7.22
2023-01-11T13:56:32.319Z,7.68
2023-01-11T13:59:08.301Z,8.05
2023-01-11T14:01:45.798Z,7.03
2023-01-11T14:04:22.368Z,7.63
2023-01-11T14:07:08.062Z,7.90
2023-01-11T14:09:54.954Z,7.80
2023-01-11T14:12:42.876Z,8.02
2023-01-11T14:15:28.759Z,8.93
2023-01-11T14:18:34.485Z,9.13
2023-01-11T14:21:13.212Z,7.90
2023-01-11T14:23:50.059Z,8.48
2023-01-11T14:26:39.613Z,8.10
2023-01-11T14:29:32.443Z,8.38
2023-01-11T14:32:16.297Z,7.60
2023-01-11T14:35:24.538Z,7.80
2023-01-11T14:38:19.012Z,7.47
2023-01-11T14:41:22.669Z,8.77
2023-01-11T14:44:14.642Z,8.30
2023-01-11T14:47:22.452Z,8.07
2023-01-11T14:50:05.127Z,8.52
2023-01-11T14:52:40.611Z,8.52
2023-01-11T14:55:18.898Z,8.27
2023-01-11T14:58:05.043Z,7.93
2023-01-11T15:01:10.924Z,8.70
2023-01-11T15:03:51.254Z,7.63
2023-01-11T15:06:22.850Z,7.38
2023-01-11T15:08:55.173Z,7.80
2023-01-11T15:11:40.960Z,8.55
2023-01-11T15:14:28.292Z,8.32
2023-01-11T15:17:20.666Z,8.65
2023-01-11T15:19:53.303Z,8.02
2023-01-11T15:22:29.448Z,8.20
2023-01-11T15:25:03.472Z,8.13
2023-01-11T15:27:35.788Z,8.20
2023-01-11T15:30:07.763Z,8.15
2023-01-11T15:32:38.899Z,7.93
2023-01-11T15:35:34.933Z,7.75
2023-01-11T15:38:12.441Z,8.82
2023-01-11T15:40:46.407Z,8.43
2023-01-11T15:43:43.477Z,8.52
2023-01-11T15:46:56.160Z,8.07
2023-01-11T15:50:05.993Z,8.82
2023-01-11T15:53:16.272Z,8.70
2023-01-11T15:59:10.961Z,8.43
2023-01-11T16:02:19.124Z,8.70
2023-01-11T16:04:52.339Z,7.50
2023-01-11T16:07:37.207Z,8.02
2023-01-11T16:10:29.540Z,8.18
2023-01-11T16:13:17.240Z,8.95
2023-01-11T16:16:00.353Z,8.00
2023-01-11T16:18:36.119Z,8.60
2023-01-11T16:21:09.374Z,8.68
2023-01-11T16:23:42.141Z,8.75
2023-01-11T16:26:15.660Z,12.30
2023-01-11T16:28:50.897Z,9.00
2023-01-11T16:31:20.399Z,10.82
2023-01-11T16:33:51.877Z,10.25
2023-01-11T16:36:22.959Z,9.05
2023-01-11T16:39:01.882Z,10.77
2023-01-11T16:41:36.190Z,9.45
2023-01-11T16:44:08.893Z,9.02
2023-01-11T16:47:14.773Z,9.15
2023-01-11T16:49:48.937Z,7.80
2023-01-11T16:52:39.659Z,8.85
2023-01-11T16:55:26.999Z,8.27
2023-01-11T16:57:59.707Z,8.25
2023-01-11T17:00:37.939Z,8.88
2023-01-11T17:03:23.848Z,9.18
2023-01-11T17:05:59.121Z,9.32
2023-01-11T17:08:31.672Z,8.60
2023-01-11T17:11:07.060Z,8.68
2023-01-11T17:14:26.092Z,9.18
2023-01-11T17:17:00.085Z,8.77
2023-01-11T17:19:31.944Z,9.00
2023-01-11T17:22:05.377Z,9.10
2023-01-11T17:24:40.944Z,9.73
2023-01-11T17:27:19.963Z,8.95
2023-01-11T17:29:50.602Z,9.30
2023-01-11T17:32:25.463Z,9.88
2023-01-11T17:34:55.291Z,9.90
2023-01-11T17:37:25.380Z,8.13
2023-01-11T17:39:54.794Z,10.18
2023-01-11T17:42:43.718Z,7.90
2023-01-11T17:45:21.331Z,8.63
2023-01-11T17:47:52.778Z,9.73
2023-01-11T17:50:29.352Z,9.50
2023-01-11T17:53:07.173Z,9.30
2023-01-11T17:55:36.407Z,9.27
2023-01-11T17:58:20.750Z,9.32
2023-01-11T18:01:25.631Z,8.82
2023-01-11T18:03:57.844Z,8.40
2023-01-11T18:06:35.422Z,8.18
2023-01-11T18:09:08.101Z,8.45
2023-01-11T18:11:39.969Z,8.95
2023-01-11T18:14:20.817Z,8.93
2023-01-11T18:17:01.625Z,8.57
2023-01-11T18:19:36.406Z,8.90
2023-01-11T18:22:05.631Z,9.27
2023-01-11T18:24:43.006Z,9.32
2023-01-11T18:27:30.058Z,8.65
2023-01-11T18:30:06.240Z,7.65
2023-01-11T18:32:42.750Z,8.75
2023-01-11T18:35:19.086Z,9.02
2023-01-11T18:37:48.915Z,9.57
2023-01-11T18:40:20.291Z,9.90
2023-01-11T18:42:51.831Z,9.20
2023-01-11T18:45:25.074Z,8.38
2023-01-11T18:47:54.428Z,8.60
2023-01-11T18:50:24.327Z,8.90
2023-01-11T18:52:53.914Z,9.20
2023-01-11T18:55:23.492Z,8.35
2023-01-11T18:57:52.661Z,9.27
2023-01-11T19:00:23.821Z,9.45
2023-01-11T19:02:53.142Z,9.27
2023-01-11T19:05:22.632Z,10.27
2023-01-11T19:07:51.750Z,10.18
2023-01-11T19:10:23.273Z,10.53
2023-01-11T19:12:52.546Z,9.73
2023-01-11T19:15:23.458Z,10.15
2023-01-11T19:17:52.571Z,11.18
2023-01-11T19:20:21.884Z,11.33
2023-01-11T19:22:51.596Z,10.80
2023-01-11T19:25:21.009Z,10.35
2023-01-11T19:27:50.538Z,11.15
2023-01-11T19:30:20.221Z,12.13
2023-01-11T19:32:54.013Z,11.27
2023-01-11T19:35:24.332Z,11.80
2023-01-11T19:37:53.654Z,11.15
2023-01-11T19:40:23.038Z,11.63
2023-01-11T19:42:52.586Z,12.27
2023-01-11T19:45:22.853Z,11.60
2023-01-11T19:47:53.468Z,12.43
2023-01-11T19:50:23.291Z,12.40
2023-01-11T19:55:22.792Z,11.77
2023-01-11T19:57:52.176Z,11.60
2023-01-11T20:00:21.906Z,12.23
2023-01-11T20:02:52.566Z,12.47
2023-01-11T20:05:23.000Z,10.73
2023-01-11T20:07:53.889Z,12.00
2023-01-11T20:10:23.733Z,12.48
2023-01-11T20:12:52.984Z,11.98
2023-01-11T20:15:22.622Z,10.75
2023-01-11T20:17:55.510Z,13.00
2023-01-11T20:20:26.102Z,11.88
2023-01-11T20:22:57.169Z,12.73
2023-01-11T20:25:27.492Z,11.80
2023-01-11T20:27:56.737Z,10.82
2023-01-11T20:30:26.500Z,11.15
2023-01-11T20:32:56.910Z,10.32
2023-01-11T20:35:26.805Z,11.60
2023-01-11T20:37:56.337Z,13.20
2023-01-11T20:40:26.364Z,11.40
2023-01-11T20:42:56.800Z,11.48
2023-01-11T20:45:29.183Z,11.75
2023-01-11T20:48:00.242Z,10.75
2023-01-11T20:50:30.301Z,11.52
2023-01-11T20:53:00.664Z,11.03
2023-01-11T20:55:30.525Z,10.38
2023-01-11T20:57:59.558Z,10.68
2023-01-11T21:00:29.658Z,12.10
2023-01-11T21:03:00.235Z,10.13
2023-01-11T21:05:29.683Z,10.02
2023-01-11T21:07:58.865Z,11.50
2023-01-11T21:10:28.422Z,10.48
2023-01-11T21:15:27.260Z,10.05
2023-01-11T21:17:56.765Z,11.45
2023-01-11T21:20:27.476Z,10.70
2023-01-11T21:22:56.633Z,10.18
2023-01-11T21:25:25.988Z,9.43
2023-01-11T21:27:55.129Z,10.30
2023-01-11T21:30:24.549Z,10.93
2023-01-11T21:32:54.687Z,10.57
2023-01-11T21:35:24.099Z,8.85
2023-01-11T21:37:54.475Z,10.35
2023-01-11T21:40:23.967Z,11.27
2023-01-11T21:42:53.148Z,12.07
2023-01-11T21:45:22.602Z,11.20
2023-01-11T21:47:51.695Z,11.23
2023-01-11T21:50:21.122Z,11.53
2023-01-11T21:52:50.238Z,11.02
2023-01-11T21:55:20.996Z,12.57
2023-01-11T21:57:50.051Z,11.70
2023-01-11T22:00:20.624Z,11.17
2023-01-11T22:05:20.439Z,10.95
2023-01-11T22:07:49.511Z,10.45
2023-01-11T22:10:20.687Z,9.13
2023-01-11T22:12:49.743Z,9.48
2023-01-11T22:15:19.356Z,9.48
2023-01-11T22:17:48.519Z,8.60
2023-01-11T22:20:18.333Z,7.93
2023-01-11T22:22:47.422Z,8.77
2023-01-11T22:25:17.385Z,8.53
2023-01-11T22:27:47.872Z,7.80
2023-01-11T22:30:17.964Z,7.85
2023-01-11T22:32:47.906Z,6.35
2023-01-11T22:35:17.430Z,6.07
2023-01-11T22:37:46.490Z,5.90
2023-01-11T22:40:16.447Z,5.67
2023-01-11T22:42:47.540Z,6.65
2023-01-11T22:45:17.355Z,5.38
2023-01-11T22:47:47.448Z,5.53
2023-01-11T22:52:46.080Z,4.90
2023-01-11T22:55:15.492Z,5.70
2023-01-11T22:57:45.944Z,6.57
2023-01-11T23:00:15.878Z,5.63
2023-01-11T23:02:44.946Z,6.22
2023-01-11T23:05:14.635Z,6.38
2023-01-11T23:07:45.462Z,7.03
2023-01-11T23:10:15.002Z,6.70
2023-01-11T23:13:01.619Z,6.93
2023-01-11T23:15:32.400Z,6.28
2023-01-11T23:18:01.648Z,5.63
2023-01-11T23:20:30.986Z,6.70
2023-01-11T23:23:00.130Z,6.07
2023-01-11T23:25:29.544Z,6.60
2023-01-11T23:27:59.737Z,6.50
2023-01-11T23:30:29.259Z,6.47
2023-01-11T23:32:59.689Z,6.35
2023-01-11T23:35:29.172Z,6.85
2023-01-11T23:37:58.227Z,7.05
2023-01-11T23:40:27.576Z,6.60
2023-01-11T23:42:55.876Z,6.07
2023-01-11T23:45:25.215Z,6.68
2023-01-11T23:47:53.288Z,5.95
2023-01-11T23:50:24.023Z,5.90
2023-01-11T23:52:53.165Z,6.90
2023-01-11T23:55:22.471Z,6.67
2023-01-11T23:58:05.366Z,6.43
